VOHY/HYD METAR and TAF weather

Enter ICAO airport designator
Station Type Date Time Source
VOHY METAR 2020/09/20 07:00 UTC NOAA

VOHY 200700Z VRB02KT 5000 HZ SCT020 SCT100 29/25 Q1005 NOSIG


Station Type Date Time Source
VOHY Decoded METAR 2020/09/20 07:00 UTC NOAA

Hyderabad Airport, India (VOHY) 17-27N 078-28E 545M
Sep 20, 2020 - 03:00 AM EDT / 2020.09.20 0700 UTC
Wind: Variable at 2 MPH (2 KT):0
Visibility: 3 mile(s):0
Sky conditions: partly cloudy
Weather: haze
Temperature: 84 F (29 C)
Dew Point: 77 F (25 C)
Relative Humidity: 79%
Pressure (altimeter): 29.68 in. Hg (1005 hPa)
ob: VOHY 200700Z VRB02KT 5000 HZ SCT020 SCT100 29/25 Q1005 NOSIG
cycle: 7

Station Type Date Time Source
VOHY TAF 2020/09/13 06:00 UTC NOAA

TAF VOHY 130500Z 1306/1315 29005KT 6000 FEW010 SCT015 BKN080
TEMPO 1306/1312 26006KT 4000 -DZ SCT010SCT025 FEW030CB BKN080
TEMPO 1312/1315 24005KT 3500 TSRA BR SCT010 SCT015 FEW030CB OVC080

Example: see airport list